Kirby, WY (82430)

8:22 PM MDT on October 20, 2014 (GMT -0600)
Worland Municipal | Change Station
CLOSE
Current Station
Airport
Location: Worland,
Elevation: 4226 ft
Nearby Weather Stations

Elev 4226 ft 43.97 °N, 107.95 °W | Updated 29 minutes ago

Clear
Clear
59 °F
Feels Like 59 °F
N
9
Wind Variable Wind from South

Today
High -- | Low -- °F
--% Chance of Precip.
Yesterday
High -- | Low -- °F
Precip. -- in
7:33 AM 6:20 PM
Waning Crescent, 8% visible
Pressure 29.87 in
Visibility 10.0 miles
Clouds Clear
Dew Point 29 °F
Humidity 32%
Rainfall 0.00 in
Snow Depth Not available.
UV 0 out of 12
Pollen 2.60 out of 12
Air Quality Not available.
Flu Activity Sporadic
METAR KWRL 210153Z AUTO 18008KT 10SM CLR 15/M02 A2987 RMK AO2 SLP114 T01501017

More Conditions Fewer Conditions

Pressure 29.87 in
Visibility 10.0 miles
Clouds Clear
Dew Point 29 °F
Humidity 32%
Rainfall 0.00 in
Snow Depth Not available.
UV 0 out of 12
Pollen 2.60 out of 12
Air Quality Not available.
Flu Activity Sporadic
METAR KWRL 210153Z AUTO 18008KT 10SM CLR 15/M02 A2987 RMK AO2 SLP114 T01501017

More Conditions Fewer Conditions

10-Day Weather Forecast

Almanac

Astronomy

Oct. 20, 2014 Rise Set
Actual Time 7:33 AM MDT 6:20 PM MDT
Civil Twilight 7:04 AM MDT 6:50 PM MDT
Nautical Twilight 6:30 AM MDT 7:23 PM MDT
Astronomical Twilight 5:57 AM MDT 7:56 PM MDT
Moon 4:18 AM MDT (10/20) 4:50 PM MDT (10/20)
Length of Visible Light 11h 45m
Length of Day
10h 47m
Tomorrow will be 2m 50s shorter.
Waning Crescent, 8% of the Moon is Illuminated
Today
Waning Crescent
Oct 23
New
Oct 30
First Quarter
Nov 6
Full
Nov 14
Last Quarter

Today's Extremes

State Highs State Lows

Community

WunderPhotos

Upload Photos

1,763,575 photos uploaded!

Nearby

Snow Depth

Station Depth Elevation
Middle Powder 1 in 7760 ft
Timber Creek 0 in 7950 ft
Shell Creek 1 in 9580 ft
Bone Springs Divide 0 in 9350 ft
Cold Springs 0 in 9630 ft

Earthquake Activity

City Distance Mag. Time & Date
No recent earthquake activity has been reported nearby.
Minimum magnitude displayed is 2.5.

Coastal Water Temperatures

Place Temperature
No Stations Reporting

Nearby Weather Stations